Airfield :
LOGIN :

Register | Disclaimer

   EN    FR    IT 

 










Legend :    VFR   Marginal VFR   IFR   Intensive IFR   Very Intensive IFR
Visi :
Ceiling :
>= 8 km
>= 3000ft
5 to 8 km
1000 to 3000 ft
1500m to 5 km
500 to 1000 ft
800 to 1500m
200 to 500 ft
< 800m
< 200 ft
Symbols :   Thunderstorms  Fog  Heavy snow  Heavy precipitations  Wind > 20 kt
SIGMETs :     Misc.  Thunderstorms  Icing  Turbulence  Mountain Waves  Volcanic Ashes







- Airport Elevation : 782 ft
- IATA code : BGY


LIME - Orio al Serio International - Bergamo

CURRENT METAR :
  • 231350Z 15007KT 130V200 CAVOK 09/01 Q1023 NOSIG

EXPIRED METARs :
  • 231320Z 16006KT 130V190 CAVOK 09/01 Q1022 NOSIG
  • 231250Z 13005KT 080V180 CAVOK 09/01 Q1022 NOSIG
  • 231220Z 15006KT 120V180 CAVOK 09/01 Q1022 NOSIG
  • 231150Z 13005KT 100V180 CAVOK 09/01 Q1022 NOSIG
  • 231120Z 14004KT 100V180 CAVOK 09/01 Q1022 NOSIG

TAF TAF LIME
Valid from the 23 at 12:00 until the 24 at 12:00 UTC


231100Z 2312/2412 VRB05KT CAVOK
No reported NOTAMs for that airfield.
1 SIGMET reported for the Milano FIR (LIMM) :
 
Severe turbulence
LIMM SIGMET 4 VALID 231230/231430 LIIP
LIMM MILANO FIR SEV TURB FCST E OF LINE N4647 E00927 - N4331 E01154 ABV FL230 MOV E NC=



MET'MAP, your aeronautical weather chart ! - Copyright ORBIFLY December 2007 - Disclaimer

ORBIFLY MET'MAP TEAM :

Programming & Development : Alexandra Zaïnal
Concept & Development : Baudouin d'Aumeries
Co-Development & Prog : Marc-Olivier Méhu
Technical & hardware support : Manuel Goepfert

Contact : metmap@orbifly.com




SOURCES & CREDITS :

   NOAA